createdAt,value
2018-06-15T00:00:44.394Z,49.40
2018-06-15T00:03:13.649Z,49.40
2018-06-15T00:05:42.893Z,49.50
2018-06-15T00:10:41.005Z,49.40
2018-06-15T00:13:10.290Z,49.90
2018-06-15T00:15:39.531Z,49.90
2018-06-15T00:18:08.820Z,49.80
2018-06-15T00:20:38.159Z,50.00
2018-06-15T00:23:07.423Z,50.00
2018-06-15T00:25:36.733Z,50.00
2018-06-15T00:28:05.964Z,50.10
2018-06-15T00:30:35.211Z,50.00
2018-06-15T00:33:04.486Z,50.10
2018-06-15T00:35:33.741Z,50.10
2018-06-15T00:38:02.987Z,50.00
2018-06-15T00:40:32.247Z,50.10
2018-06-15T00:43:01.525Z,50.10
2018-06-15T00:45:30.831Z,50.10
2018-06-15T00:48:00.118Z,50.20
2018-06-15T00:50:29.387Z,50.10
2018-06-15T00:53:00.181Z,50.10
2018-06-15T00:55:29.394Z,50.00
2018-06-15T00:57:58.643Z,50.00
2018-06-15T01:00:27.919Z,50.10
2018-06-15T01:02:57.338Z,50.10
2018-06-15T01:05:26.773Z,50.10
2018-06-15T01:07:56.062Z,50.10
2018-06-15T01:10:25.326Z,50.10
2018-06-15T01:12:54.550Z,50.10
2018-06-15T01:17:52.641Z,50.10
2018-06-15T01:20:21.861Z,50.10
2018-06-15T01:22:51.151Z,50.10
2018-06-15T01:25:20.392Z,50.20
2018-06-15T01:27:49.661Z,49.80
2018-06-15T01:30:18.909Z,50.30
2018-06-15T01:32:48.168Z,50.50
2018-06-15T01:35:17.443Z,50.40
2018-06-15T01:37:46.755Z,50.50
2018-06-15T01:40:16.001Z,50.30
2018-06-15T01:42:45.277Z,50.30
2018-06-15T01:45:14.680Z,50.40
2018-06-15T01:47:43.945Z,50.50
2018-06-15T01:50:13.277Z,50.30
2018-06-15T01:52:42.541Z,50.30
2018-06-15T01:55:11.813Z,50.40
2018-06-15T01:57:41.221Z,50.40
2018-06-15T02:00:10.490Z,50.40
2018-06-15T02:02:39.743Z,50.40
2018-06-15T02:05:09.000Z,50.40
2018-06-15T02:07:38.246Z,50.40
2018-06-15T02:10:07.547Z,49.80
2018-06-15T02:12:37.625Z,50.30
2018-06-15T02:15:06.866Z,50.90
2018-06-15T02:17:36.123Z,50.30
2018-06-15T02:20:05.390Z,50.30
2018-06-15T02:22:34.829Z,50.40
2018-06-15T02:25:04.228Z,50.40
2018-06-15T02:27:33.519Z,50.50
2018-06-15T02:30:03.045Z,50.60
2018-06-15T02:32:32.304Z,50.50
2018-06-15T02:35:01.537Z,50.50
2018-06-15T02:37:30.923Z,50.50
2018-06-15T02:40:00.167Z,50.70
2018-06-15T02:42:29.522Z,50.70
2018-06-15T02:44:58.834Z,50.60
2018-06-15T02:47:28.074Z,50.60
2018-06-15T02:49:57.329Z,50.50
2018-06-15T02:52:26.590Z,50.00
2018-06-15T02:54:55.840Z,50.60
2018-06-15T02:57:25.421Z,50.50
2018-06-15T02:59:54.774Z,50.60
2018-06-15T03:02:24.166Z,50.60
2018-06-15T03:04:53.494Z,50.50
2018-06-15T03:07:22.735Z,50.60
2018-06-15T03:09:51.990Z,50.60
2018-06-15T03:14:50.106Z,50.60
2018-06-15T03:17:19.440Z,50.70
2018-06-15T03:19:48.675Z,50.70
2018-06-15T03:22:18.002Z,50.70
2018-06-15T03:24:47.282Z,50.70
2018-06-15T03:27:16.566Z,50.80
2018-06-15T03:29:45.816Z,50.80
2018-06-15T03:32:15.077Z,50.80
2018-06-15T03:34:44.348Z,50.70
2018-06-15T03:37:13.626Z,50.70
2018-06-15T03:39:42.905Z,50.30
2018-06-15T03:42:12.129Z,50.80
2018-06-15T03:44:41.423Z,51.50
2018-06-15T03:47:10.717Z,50.90
2018-06-15T03:49:39.999Z,50.80
2018-06-15T03:52:09.311Z,50.80
2018-06-15T03:54:38.598Z,51.00
2018-06-15T03:57:07.894Z,51.00
2018-06-15T03:59:37.133Z,51.00
2018-06-15T04:02:06.436Z,51.00
2018-06-15T04:04:35.830Z,51.10
2018-06-15T04:07:05.091Z,51.10
2018-06-15T04:12:34.147Z,51.10
2018-06-15T04:15:03.456Z,51.10
2018-06-15T04:17:32.724Z,51.20
2018-06-15T04:20:02.007Z,51.10
2018-06-15T04:22:31.250Z,51.20
2018-06-15T04:25:00.586Z,51.30
2018-06-15T04:27:30.797Z,51.70
2018-06-15T04:30:00.074Z,52.30
2018-06-15T04:32:29.306Z,52.00
2018-06-15T04:34:58.695Z,51.70
2018-06-15T04:37:27.953Z,51.60
2018-06-15T04:39:57.217Z,51.50
2018-06-15T04:42:26.511Z,51.40
2018-06-15T04:44:55.738Z,51.60
2018-06-15T04:47:24.993Z,51.30
2018-06-15T04:49:54.228Z,51.70
2018-06-15T04:52:23.473Z,52.20
2018-06-15T04:54:52.887Z,52.40
2018-06-15T04:57:22.138Z,52.00
2018-06-15T04:59:51.390Z,52.20
2018-06-15T05:02:20.653Z,51.90
2018-06-15T05:04:49.900Z,52.50
2018-06-15T05:07:33.249Z,52.20
2018-06-15T05:10:02.583Z,51.70
2018-06-15T05:12:38.594Z,52.10
2018-06-15T05:15:08.466Z,51.40
2018-06-15T05:17:38.781Z,51.90
2018-06-15T05:20:08.093Z,51.80
2018-06-15T05:22:37.369Z,51.50
2018-06-15T05:25:06.630Z,52.10
2018-06-15T05:27:35.903Z,51.90
2018-06-15T05:30:05.569Z,52.00
2018-06-15T05:32:34.814Z,51.70
2018-06-15T05:35:04.102Z,51.70
2018-06-15T05:37:33.414Z,52.20
2018-06-15T05:40:02.714Z,52.30
2018-06-15T05:42:32.006Z,52.40
2018-06-15T05:45:01.267Z,52.40
2018-06-15T05:47:30.622Z,52.20
2018-06-15T05:49:59.929Z,52.10
2018-06-15T05:52:29.131Z,52.00
2018-06-15T05:54:58.515Z,51.90
2018-06-15T05:57:27.763Z,52.00
2018-06-15T05:59:57.067Z,52.00
2018-06-15T06:02:26.366Z,52.00
2018-06-15T06:04:55.759Z,52.60
2018-06-15T06:07:25.026Z,51.90
2018-06-15T06:09:54.338Z,52.00
2018-06-15T06:12:23.590Z,52.00
2018-06-15T06:14:52.878Z,52.20
2018-06-15T06:17:22.212Z,52.20
2018-06-15T06:19:51.475Z,52.30
2018-06-15T06:22:20.774Z,52.30
2018-06-15T06:24:50.113Z,52.10
2018-06-15T06:27:19.423Z,52.00
2018-06-15T06:29:48.682Z,52.00
2018-06-15T06:32:17.942Z,51.90
2018-06-15T06:34:47.207Z,51.90
2018-06-15T06:37:16.660Z,51.90
2018-06-15T06:39:45.905Z,52.50
2018-06-15T06:42:15.246Z,51.90
2018-06-15T06:44:44.500Z,51.90
2018-06-15T06:47:13.758Z,52.00
2018-06-15T06:49:43.171Z,52.10
2018-06-15T06:52:12.420Z,52.00
2018-06-15T06:54:41.778Z,52.20
2018-06-15T06:57:11.080Z,52.30
2018-06-15T06:59:40.347Z,52.30
2018-06-15T07:02:09.624Z,52.30
2018-06-15T07:04:38.908Z,52.30
2018-06-15T07:07:08.198Z,52.30
2018-06-15T07:09:37.524Z,52.30
2018-06-15T07:12:06.821Z,52.50
2018-06-15T07:14:36.075Z,52.50
2018-06-15T07:17:05.701Z,52.60
2018-06-15T07:19:35.735Z,52.50
2018-06-15T07:22:05.013Z,52.30
2018-06-15T07:24:34.291Z,52.40
2018-06-15T07:27:03.558Z,52.40
2018-06-15T07:29:32.888Z,52.50
2018-06-15T07:32:02.175Z,52.60
2018-06-15T07:34:31.417Z,52.70
2018-06-15T07:37:00.784Z,52.60
2018-06-15T07:39:30.046Z,52.60
2018-06-15T07:41:59.333Z,52.00
2018-06-15T07:44:28.607Z,52.50
2018-06-15T07:46:57.966Z,52.40
2018-06-15T07:49:27.212Z,51.90
2018-06-15T07:51:57.743Z,52.30
2018-06-15T07:54:27.169Z,52.50
2018-06-15T07:56:58.150Z,52.50
2018-06-15T07:59:27.786Z,52.40
2018-06-15T08:01:56.998Z,52.50
2018-06-15T08:04:30.492Z,52.70
2018-06-15T08:06:59.744Z,52.50
2018-06-15T08:09:29.014Z,52.10
2018-06-15T08:11:58.256Z,52.70
2018-06-15T08:14:27.513Z,52.60
2018-06-15T08:16:56.976Z,52.60
2018-06-15T08:19:26.214Z,52.60
2018-06-15T08:21:55.544Z,52.70
2018-06-15T08:24:24.855Z,52.20
2018-06-15T08:26:54.110Z,52.60
2018-06-15T08:29:23.410Z,52.70
2018-06-15T08:31:52.679Z,52.40
2018-06-15T08:34:22.065Z,52.90
2018-06-15T08:36:51.335Z,52.90
2018-06-15T08:39:20.594Z,52.80
2018-06-15T08:41:49.875Z,52.70
2018-06-15T08:44:19.100Z,52.50
2018-06-15T08:46:48.381Z,52.60
2018-06-15T08:49:17.668Z,53.50
2018-06-15T08:51:46.950Z,52.50
2018-06-15T08:54:16.219Z,52.50
2018-06-15T08:56:45.478Z,52.60
2018-06-15T08:59:14.761Z,52.40
2018-06-15T09:01:44.924Z,52.50
2018-06-15T09:04:14.697Z,52.50
2018-06-15T09:06:43.978Z,52.40
2018-06-15T09:09:13.255Z,52.40
2018-06-15T09:11:42.527Z,52.40
2018-06-15T09:14:11.805Z,52.60
2018-06-15T09:16:41.110Z,52.60
2018-06-15T09:19:10.399Z,52.70
2018-06-15T09:21:39.641Z,52.40
2018-06-15T09:24:08.930Z,52.50
2018-06-15T09:26:38.592Z,52.90
2018-06-15T09:29:07.886Z,52.60
2018-06-15T09:31:37.160Z,52.90
2018-06-15T09:34:06.414Z,53.10
2018-06-15T09:36:35.701Z,53.10
2018-06-15T09:41:35.907Z,53.10
2018-06-15T09:44:05.143Z,53.10
2018-06-15T09:46:34.417Z,52.90
2018-06-15T09:49:03.728Z,53.00
2018-06-15T09:51:33.060Z,53.10
2018-06-15T09:54:02.345Z,53.30
2018-06-15T09:56:31.602Z,53.20
2018-06-15T10:01:29.697Z,53.40
2018-06-15T10:03:59.055Z,52.80
2018-06-15T10:06:28.317Z,53.30
2018-06-15T10:08:57.617Z,53.40
2018-06-15T10:11:26.872Z,53.40
2018-06-15T10:13:56.161Z,52.90
2018-06-15T10:16:25.442Z,53.40
2018-06-15T10:18:54.710Z,53.40
2018-06-15T10:21:24.174Z,53.40
2018-06-15T10:23:53.426Z,53.60
2018-06-15T10:26:22.668Z,53.60
2018-06-15T10:28:51.925Z,53.70
2018-06-15T10:31:21.278Z,53.60
2018-06-15T10:33:50.549Z,53.60
2018-06-15T10:36:19.982Z,53.10
2018-06-15T10:38:49.225Z,53.60
2018-06-15T10:41:18.497Z,53.20
2018-06-15T10:43:47.863Z,53.70
2018-06-15T10:46:17.104Z,53.60
2018-06-15T10:48:46.403Z,53.50
2018-06-15T10:51:15.658Z,53.80
2018-06-15T10:53:45.022Z,53.90
2018-06-15T10:56:14.366Z,53.80
2018-06-15T11:01:12.608Z,53.80
2018-06-15T11:03:41.919Z,53.70
2018-06-15T11:06:11.241Z,53.80
2018-06-15T11:08:40.495Z,54.60
2018-06-15T11:11:09.815Z,54.00
2018-06-15T11:13:39.089Z,53.80
2018-06-15T11:16:08.429Z,54.30
2018-06-15T11:18:37.675Z,54.20
2018-06-15T11:21:06.997Z,54.10
2018-06-15T11:23:36.277Z,54.10
2018-06-15T11:26:05.711Z,54.00
2018-06-15T11:28:35.045Z,53.70
2018-06-15T11:31:04.466Z,54.20
2018-06-15T11:33:33.771Z,54.20
2018-06-15T11:36:03.112Z,54.30
2018-06-15T11:38:32.479Z,54.30
2018-06-15T11:41:01.921Z,54.30
2018-06-15T11:43:31.115Z,54.20
2018-06-15T11:46:00.403Z,54.00
2018-06-15T11:48:29.671Z,53.90
2018-06-15T11:51:01.770Z,54.10
2018-06-15T11:53:31.012Z,54.10
2018-06-15T11:56:02.243Z,54.00
2018-06-15T11:58:47.180Z,54.10
2018-06-15T12:01:18.167Z,54.20
2018-06-15T12:03:47.442Z,54.10
2018-06-15T12:06:19.985Z,53.80
2018-06-15T12:08:49.280Z,54.40
2018-06-15T12:11:18.580Z,54.30
2018-06-15T12:13:47.882Z,53.70
2018-06-15T12:16:17.154Z,54.20
2018-06-15T12:18:46.465Z,54.40
2018-06-15T12:21:15.729Z,54.40
2018-06-15T12:23:45.007Z,53.80
2018-06-15T12:26:14.266Z,54.40
2018-06-15T12:28:43.586Z,54.40
2018-06-15T12:31:12.972Z,54.50
2018-06-15T12:33:42.258Z,54.40
2018-06-15T12:36:11.570Z,54.40
2018-06-15T12:38:40.840Z,54.40
2018-06-15T12:41:10.155Z,54.40
2018-06-15T12:43:39.472Z,54.50
2018-06-15T12:46:10.498Z,53.80
2018-06-15T12:48:39.834Z,54.40
2018-06-15T12:51:09.267Z,54.20
2018-06-15T12:53:38.531Z,53.70
2018-06-15T12:56:07.819Z,54.20
2018-06-15T12:58:37.187Z,54.10
2018-06-15T13:01:06.422Z,54.00
2018-06-15T13:03:35.686Z,53.70
2018-06-15T13:06:05.108Z,53.80
2018-06-15T13:11:04.812Z,53.20
2018-06-15T13:13:34.114Z,53.70
2018-06-15T13:16:03.375Z,53.70
2018-06-15T13:18:32.686Z,53.70
2018-06-15T13:21:01.962Z,53.60
2018-06-15T13:23:31.242Z,53.50
2018-06-15T13:26:00.519Z,53.40
2018-06-15T13:28:29.985Z,53.50
2018-06-15T13:30:59.294Z,53.30
2018-06-15T13:33:28.564Z,53.20
2018-06-15T13:35:57.822Z,52.70
2018-06-15T13:38:27.071Z,53.20
2018-06-15T13:40:56.460Z,53.20
2018-06-15T13:43:25.677Z,53.20
2018-06-15T13:45:54.948Z,53.00
2018-06-15T13:48:24.353Z,53.00
2018-06-15T13:50:53.665Z,52.90
2018-06-15T13:53:22.898Z,52.80
2018-06-15T13:55:52.164Z,51.30
2018-06-15T13:58:21.560Z,51.80
2018-06-15T14:00:50.822Z,52.00
2018-06-15T14:03:20.179Z,51.40
2018-06-15T14:05:49.444Z,51.90
2018-06-15T14:08:18.723Z,51.80
2018-06-15T14:10:48.084Z,51.80
2018-06-15T14:13:18.260Z,51.80
2018-06-15T14:15:47.570Z,51.80
2018-06-15T14:18:16.856Z,51.60
2018-06-15T14:20:46.119Z,51.60
2018-06-15T14:23:15.474Z,51.70
2018-06-15T14:25:44.818Z,51.70
2018-06-15T14:28:14.087Z,51.80
2018-06-15T14:30:43.411Z,51.80
2018-06-15T14:33:12.733Z,51.90
2018-06-15T14:35:42.020Z,52.00
2018-06-15T14:38:11.275Z,52.20
2018-06-15T14:40:40.556Z,52.30
2018-06-15T14:43:09.789Z,52.30
2018-06-15T14:45:39.086Z,52.40
2018-06-15T14:48:08.351Z,52.60
2018-06-15T14:50:37.774Z,52.60
2018-06-15T14:53:07.025Z,52.60
2018-06-15T14:55:45.747Z,52.70
2018-06-15T14:58:16.378Z,52.80
2018-06-15T15:00:45.731Z,52.90
2018-06-15T15:03:15.074Z,52.90
2018-06-15T15:05:44.354Z,52.90
2018-06-15T15:08:13.678Z,52.90
2018-06-15T15:10:42.938Z,53.00
2018-06-15T15:13:12.590Z,53.00
2018-06-15T15:15:41.889Z,53.00
2018-06-15T15:18:11.189Z,53.10
2018-06-15T15:20:40.446Z,53.10
2018-06-15T15:23:10.919Z,53.10
2018-06-15T15:25:40.574Z,53.10
2018-06-15T15:28:09.848Z,53.10
2018-06-15T15:30:42.375Z,53.00
2018-06-15T15:33:11.666Z,53.00
2018-06-15T15:35:40.925Z,53.00
2018-06-15T15:38:10.240Z,53.10
2018-06-15T15:40:39.491Z,53.10
2018-06-15T15:43:08.774Z,53.00
2018-06-15T15:45:39.038Z,52.90
2018-06-15T15:48:08.368Z,52.90
2018-06-15T15:50:37.636Z,53.00
2018-06-15T15:53:06.933Z,53.00
2018-06-15T15:55:36.210Z,52.50
2018-06-15T15:58:05.520Z,52.60
2018-06-15T16:00:34.788Z,53.00
2018-06-15T16:03:04.191Z,53.10
2018-06-15T16:05:33.458Z,53.10
2018-06-15T16:08:02.721Z,52.50
2018-06-15T16:10:32.021Z,53.00
2018-06-15T16:13:01.290Z,53.00
2018-06-15T16:15:30.610Z,52.90
2018-06-15T16:17:59.918Z,52.90
2018-06-15T16:20:29.187Z,52.90
2018-06-15T16:22:58.437Z,52.90
2018-06-15T16:25:27.691Z,53.20
2018-06-15T16:27:56.964Z,53.20
2018-06-15T16:30:26.442Z,53.30
2018-06-15T16:32:55.689Z,53.40
2018-06-15T16:35:24.946Z,53.40
2018-06-15T16:37:57.658Z,53.40
2018-06-15T16:40:26.966Z,53.50
2018-06-15T16:43:02.542Z,53.50
2018-06-15T16:45:42.475Z,53.10
2018-06-15T16:48:17.334Z,53.60
2018-06-15T16:50:47.766Z,53.60
2018-06-15T16:53:24.082Z,53.60
2018-06-15T16:55:54.313Z,53.60
2018-06-15T16:58:26.015Z,53.60
2018-06-15T17:00:56.145Z,53.70
2018-06-15T17:03:28.815Z,53.80
2018-06-15T17:06:08.275Z,53.90
2018-06-15T17:08:40.822Z,53.90
2018-06-15T17:11:12.405Z,53.20
2018-06-15T17:13:50.561Z,53.70
2018-06-15T17:16:21.116Z,54.30
2018-06-15T17:18:50.368Z,54.40
2018-06-15T17:21:19.647Z,54.30
2018-06-15T17:23:48.958Z,54.30
2018-06-15T17:26:18.215Z,54.20
2018-06-15T17:28:47.468Z,54.30
2018-06-15T17:31:16.794Z,54.10
2018-06-15T17:33:46.002Z,54.10
2018-06-15T17:36:15.347Z,54.10
2018-06-15T17:38:44.710Z,54.10
2018-06-15T17:41:14.195Z,54.10
2018-06-15T17:43:43.473Z,54.00
2018-06-15T17:46:12.729Z,53.50
2018-06-15T17:48:42.049Z,54.00
2018-06-15T17:51:11.363Z,53.90
2018-06-15T17:53:40.627Z,54.00
2018-06-15T17:56:09.900Z,54.00
2018-06-15T17:58:39.181Z,54.00
2018-06-15T18:01:08.539Z,53.40
2018-06-15T18:03:37.806Z,53.90
2018-06-15T18:06:07.130Z,53.90
2018-06-15T18:08:36.494Z,53.90
2018-06-15T18:11:05.754Z,53.90
2018-06-15T18:13:35.041Z,53.90
2018-06-15T18:16:05.235Z,53.40
2018-06-15T18:18:34.578Z,53.90
2018-06-15T18:21:03.918Z,54.90
2018-06-15T18:23:33.160Z,54.40
2018-06-15T18:26:02.407Z,54.20
2018-06-15T18:28:32.969Z,54.70
2018-06-15T18:31:02.349Z,54.80
2018-06-15T18:33:31.671Z,55.30
2018-06-15T18:36:00.930Z,55.00
2018-06-15T18:41:29.922Z,55.60
2018-06-15T18:43:59.290Z,54.50
2018-06-15T18:46:28.876Z,55.00
2018-06-15T18:48:58.170Z,55.00
2018-06-15T18:51:27.479Z,54.90
2018-06-15T18:53:56.725Z,54.90
2018-06-15T18:56:26.114Z,54.70
2018-06-15T18:58:55.455Z,54.70
2018-06-15T19:01:24.747Z,54.70
2018-06-15T19:03:54.033Z,54.60
2018-06-15T19:06:23.307Z,54.10
2018-06-15T19:08:52.808Z,54.60
2018-06-15T19:11:22.094Z,54.50
2018-06-15T19:13:51.588Z,54.00
2018-06-15T19:19:21.057Z,54.50
2018-06-15T19:21:50.349Z,54.50
2018-06-15T19:24:19.653Z,53.90
2018-06-15T19:26:48.998Z,54.40
2018-06-15T19:29:18.222Z,54.40
2018-06-15T19:31:47.500Z,53.90
2018-06-15T19:34:16.792Z,54.50
2018-06-15T19:36:46.058Z,53.90
2018-06-15T19:39:15.313Z,54.40
2018-06-15T19:41:44.603Z,54.40
2018-06-15T19:46:42.686Z,54.50
2018-06-15T19:49:11.930Z,54.40
2018-06-15T19:51:41.229Z,53.90
2018-06-15T19:54:10.702Z,54.40
2018-06-15T19:56:39.997Z,54.50
2018-06-15T19:59:09.330Z,54.40
2018-06-15T20:01:38.586Z,54.40
2018-06-15T20:04:07.855Z,54.40
2018-06-15T20:06:37.115Z,54.50
2018-06-15T20:09:07.986Z,54.50
2018-06-15T20:11:37.886Z,54.50
2018-06-15T20:14:07.224Z,54.50
2018-06-15T20:16:36.500Z,54.60
2018-06-15T20:19:05.851Z,54.30
2018-06-15T20:21:35.078Z,54.80
2018-06-15T20:24:04.479Z,54.90
2018-06-15T20:26:33.717Z,55.00
2018-06-15T20:29:02.990Z,55.00
2018-06-15T20:31:32.258Z,54.80
2018-06-15T20:34:01.609Z,54.60
2018-06-15T20:36:30.884Z,54.50
2018-06-15T20:39:00.144Z,54.50
2018-06-15T20:41:29.554Z,54.50
2018-06-15T20:43:58.971Z,54.30
2018-06-15T20:48:57.043Z,53.80
2018-06-15T20:51:26.318Z,53.70
2018-06-15T20:53:55.606Z,53.40
2018-06-15T20:56:24.936Z,53.30
2018-06-15T20:58:54.251Z,53.10
2018-06-15T21:01:23.544Z,52.90
2018-06-15T21:03:52.832Z,52.80
2018-06-15T21:06:22.117Z,52.60
2018-06-15T21:08:51.371Z,52.50
2018-06-15T21:13:49.460Z,52.40
2018-06-15T21:16:18.706Z,52.40
2018-06-15T21:18:48.120Z,52.30
2018-06-15T21:21:17.391Z,52.30
2018-06-15T21:23:46.665Z,52.10
2018-06-15T21:26:15.934Z,52.10
2018-06-15T21:28:45.256Z,52.10
2018-06-15T21:31:14.631Z,51.90
2018-06-15T21:33:43.940Z,51.80
2018-06-15T21:36:13.213Z,51.70
2018-06-15T21:38:42.478Z,51.70
2018-06-15T21:41:11.810Z,51.70
2018-06-15T21:43:41.154Z,51.80
2018-06-15T21:46:10.459Z,51.20
2018-06-15T21:48:39.689Z,51.70
2018-06-15T21:51:08.970Z,51.70
2018-06-15T21:53:38.250Z,51.60
2018-06-15T21:56:07.511Z,51.10
2018-06-15T21:58:36.792Z,51.00
2018-06-15T22:01:06.140Z,51.00
2018-06-15T22:03:35.414Z,51.50
2018-06-15T22:06:04.689Z,51.50
2018-06-15T22:08:33.946Z,51.60
2018-06-15T22:11:03.210Z,51.50
2018-06-15T22:13:32.622Z,51.50
2018-06-15T22:16:01.871Z,50.90
2018-06-15T22:18:31.353Z,51.50
2018-06-15T22:21:00.615Z,51.40
2018-06-15T22:23:30.057Z,51.40
2018-06-15T22:25:59.346Z,51.50
2018-06-15T22:28:28.553Z,51.40
2018-06-15T22:30:57.828Z,51.40
2018-06-15T22:33:27.215Z,50.90
2018-06-15T22:35:56.477Z,50.90
2018-06-15T22:38:25.728Z,51.30
2018-06-15T22:40:54.986Z,51.40
2018-06-15T22:43:24.231Z,51.40
2018-06-15T22:45:53.504Z,51.20
2018-06-15T22:48:22.770Z,50.70
2018-06-15T22:53:20.817Z,51.20
2018-06-15T22:55:50.090Z,51.20
2018-06-15T22:58:19.444Z,51.00
2018-06-15T23:00:50.699Z,51.40
2018-06-15T23:03:24.276Z,50.90
2018-06-15T23:05:58.089Z,51.10
2018-06-15T23:08:29.514Z,51.60
2018-06-15T23:10:58.756Z,51.60
2018-06-15T23:13:28.014Z,51.80
2018-06-15T23:15:57.500Z,51.80
2018-06-15T23:18:26.862Z,51.80
2018-06-15T23:23:25.427Z,52.10
2018-06-15T23:25:54.692Z,52.70
2018-06-15T23:28:24.083Z,52.80
2018-06-15T23:30:53.422Z,53.00
2018-06-15T23:33:25.650Z,53.00
2018-06-15T23:35:54.973Z,53.20
2018-06-15T23:38:24.432Z,53.30
2018-06-15T23:40:53.732Z,53.50
2018-06-15T23:43:23.154Z,53.60
2018-06-15T23:45:52.444Z,53.10
2018-06-15T23:48:21.712Z,53.60
2018-06-15T23:50:50.994Z,53.80
2018-06-15T23:53:20.291Z,53.70
2018-06-15T23:55:49.698Z,53.80
2018-06-15T23:58:18.955Z,53.30
